Time;durP1;ratioP1;P1;durP2;ratioP2;P2;SDS_P1;SDS_P2;PMS_P1;PMS_P2;Temp;Humidity;BMP_temperature;BMP_pressure;BME280_temperature;BME280_humidity;BME280_pressure;Samples;Min_cycle;Max_cycle;Signal;HPM_P1;HPM_P2
2021/05/04 00:02:11;;;;;;;4.20;2.47;;;;;;;6.87;100.00;99757.09;1756387;81;21154;-73
2021/05/04 00:04:39;;;;;;;2.90;2.40;;;;;;;6.82;100.00;99755.36;1742925;81;21171;-75
2021/05/04 00:07:06;;;;;;;6.80;2.70;;;;;;;6.78;100.00;99757.51;1743956;81;21471;-74
2021/05/04 00:09:35;;;;;;;3.60;2.50;;;;;;;6.76;100.00;99764.02;1725814;82;21703;-73
2021/05/04 00:12:04;;;;;;;2.87;2.50;;;;;;;6.73;100.00;99764.31;1746165;81;21609;-75
2021/05/04 00:14:35;;;;;;;3.53;2.70;;;;;;;6.71;100.00;99767.66;1730955;82;21613;-74
2021/05/04 00:17:04;;;;;;;4.93;3.13;;;;;;;6.67;100.00;99763.09;1752796;81;21614;-74
2021/05/04 00:19:32;;;;;;;4.97;3.40;;;;;;;6.62;100.00;99770.28;1749307;82;21166;-74
2021/05/04 00:22:00;;;;;;;7.30;3.37;;;;;;;6.60;100.00;99778.13;1722532;82;21188;-73
2021/05/04 00:24:28;;;;;;;7.27;3.20;;;;;;;6.56;100.00;99774.91;1736661;81;21211;-75
2021/05/04 00:26:55;;;;;;;4.77;2.80;;;;;;;6.52;100.00;99771.34;1720971;83;21176;-73
2021/05/04 00:29:23;;;;;;;3.13;2.60;;;;;;;6.48;100.00;99772.63;1737427;81;21152;-74
2021/05/04 00:31:51;;;;;;;2.63;2.43;;;;;;;6.43;100.00;99773.94;1731708;81;21173;-74
2021/05/04 00:34:19;;;;;;;6.17;2.73;;;;;;;6.38;100.00;99778.91;1752386;81;21315;-74
2021/05/04 00:36:46;;;;;;;2.77;2.33;;;;;;;6.34;100.00;99791.43;1738078;81;21151;-74
2021/05/04 00:39:14;;;;;;;3.30;2.60;;;;;;;6.31;100.00;99793.09;1718073;82;21301;-73
2021/05/04 00:41:42;;;;;;;3.00;2.30;;;;;;;6.29;100.00;99786.53;1742358;81;21293;-74
2021/05/04 00:44:10;;;;;;;4.10;2.47;;;;;;;6.26;100.00;99789.00;1737919;81;21317;-74
2021/05/04 00:46:38;;;;;;;6.00;2.80;;;;;;;6.24;100.00;99782.94;1738458;81;21143;-74
2021/05/04 00:49:05;;;;;;;4.23;2.53;;;;;;;6.21;100.00;99783.23;1740430;81;21518;-74
2021/05/04 00:51:33;;;;;;;4.53;2.80;;;;;;;6.18;100.00;99779.52;1760471;81;21177;-74
2021/05/04 00:54:02;;;;;;;4.63;2.90;;;;;;;6.16;100.00;99775.28;1743006;81;21200;-75
2021/05/04 00:56:32;;;;;;;4.90;2.70;;;;;;;6.12;100.00;99777.42;1725226;81;21160;-74
2021/05/04 00:58:59;;;;;;;4.03;2.80;;;;;;;6.10;100.00;99777.23;1751718;81;21156;-74
2021/05/04 01:01:29;;;;;;;3.87;2.73;;;;;;;6.06;100.00;99770.81;1744574;81;21125;-74
2021/05/04 01:03:57;;;;;;;5.10;2.60;;;;;;;6.04;100.00;99776.83;1749337;81;21319;-74
2021/05/04 01:06:25;;;;;;;5.40;2.80;;;;;;;6.01;100.00;99773.09;1744997;81;21159;-74
2021/05/04 01:08:54;;;;;;;6.13;2.80;;;;;;;5.99;100.00;99773.73;1752067;81;21151;-73
2021/05/04 01:11:21;;;;;;;3.10;2.80;;;;;;;6.00;100.00;99788.00;1748218;81;21183;-73
2021/05/04 01:13:51;;;;;;;5.23;3.00;;;;;;;5.98;100.00;99777.41;1760181;81;21287;-74
2021/05/04 01:16:19;;;;;;;4.73;3.27;;;;;;;5.96;100.00;99783.42;1744826;81;21186;-74
2021/05/04 01:18:47;;;;;;;4.17;2.47;;;;;;;5.95;100.00;99785.74;1754391;80;21161;-73
2021/05/04 01:21:16;;;;;;;4.03;2.87;;;;;;;5.94;100.00;99790.75;1785540;80;21125;-75
2021/05/04 01:23:44;;;;;;;8.10;3.00;;;;;;;5.94;100.00;99789.41;1779563;80;21293;-74
2021/05/04 01:26:11;;;;;;;5.47;2.83;;;;;;;5.91;100.00;99809.82;1777585;80;21290;-74
2021/05/04 01:28:39;;;;;;;4.50;2.80;;;;;;;5.90;100.00;99801.44;1778138;80;21172;-74
2021/05/04 01:31:07;;;;;;;5.13;2.90;;;;;;;5.89;100.00;99805.94;1724884;82;21938;-73
2021/05/04 01:33:34;;;;;;;5.30;3.00;;;;;;;5.88;100.00;99804.27;1723455;83;21176;-74
2021/05/04 01:36:03;;;;;;;4.83;3.10;;;;;;;5.88;100.00;99799.41;1740125;82;21752;-73
2021/05/04 01:38:31;;;;;;;5.03;3.10;;;;;;;5.86;100.00;99804.91;1736879;82;21224;-74
2021/05/04 01:41:02;;;;;;;3.40;2.80;;;;;;;5.83;100.00;99807.88;1723766;83;21201;-74
2021/05/04 01:43:30;;;;;;;4.33;2.83;;;;;;;5.82;100.00;99813.39;1751699;81;21147;-74
2021/05/04 01:45:58;;;;;;;5.23;3.10;;;;;;;5.79;100.00;99810.52;1769115;80;21587;-74
2021/05/04 01:48:25;;;;;;;7.33;3.17;;;;;;;5.75;100.00;99814.96;1726540;82;21167;-74
2021/05/04 01:50:54;;;;;;;5.90;2.67;;;;;;;5.72;100.00;99818.80;1726720;82;21342;-73
2021/05/04 01:53:22;;;;;;;5.37;2.80;;;;;;;5.69;100.00;99817.23;1745759;81;21143;-74
2021/05/04 01:55:50;;;;;;;5.53;3.33;;;;;;;5.66;100.00;99818.85;1782540;80;21169;-74
2021/05/04 01:58:18;;;;;;;3.77;3.10;;;;;;;5.61;100.00;99817.13;1724623;82;21184;-73
2021/05/04 02:00:46;;;;;;;3.43;2.97;;;;;;;5.59;100.00;99823.11;1718892;83;21150;-74
2021/05/04 02:03:14;;;;;;;4.50;2.60;;;;;;;5.53;100.00;99830.91;1782687;80;21164;-74
2021/05/04 02:05:43;;;;;;;2.90;2.60;;;;;;;5.47;100.00;99829.62;1726007;83;21199;-74
2021/05/04 02:08:11;;;;;;;3.77;2.53;;;;;;;5.41;100.00;99840.94;1723565;83;21323;-73
2021/05/04 02:10:40;;;;;;;4.10;2.80;;;;;;;5.35;100.00;99846.84;1724329;83;21208;-74
2021/05/04 02:13:08;;;;;;;4.43;2.60;;;;;;;5.29;100.00;99851.82;1738275;82;21319;-74
2021/05/04 02:15:35;;;;;;;3.73;3.00;;;;;;;5.26;100.00;99848.08;1737645;82;21270;-75
2021/05/04 02:18:04;;;;;;;5.87;3.20;;;;;;;5.28;100.00;99851.95;1715639;81;21179;-74
2021/05/04 02:20:32;;;;;;;7.27;3.70;;;;;;;5.31;100.00;99850.31;1742092;81;21226;-75
2021/05/04 02:23:00;;;;;;;7.40;4.57;;;;;;;5.29;100.00;99857.66;1729539;81;21597;-75
2021/05/04 02:25:28;;;;;;;9.53;4.70;;;;;;;5.25;100.00;99864.30;1743601;81;21159;-76
2021/05/04 02:27:56;;;;;;;11.23;5.70;;;;;;;5.20;100.00;99859.34;1738383;81;21151;-74
2021/05/04 02:30:24;;;;;;;13.43;6.83;;;;;;;5.14;100.00;99867.46;1720334;82;21602;-74
2021/05/04 02:32:52;;;;;;;16.00;7.10;;;;;;;5.09;100.00;99868.88;1739557;81;21297;-74
2021/05/04 02:35:20;;;;;;;14.97;7.03;;;;;;;5.02;100.00;99872.59;1729697;81;21166;-75
2021/05/04 02:37:49;;;;;;;16.53;7.47;;;;;;;5.00;100.00;99874.58;1745107;81;21183;-74
2021/05/04 02:40:16;;;;;;;14.60;6.80;;;;;;;4.95;100.00;99872.30;1751645;81;21619;-74
2021/05/04 02:42:45;;;;;;;18.43;7.13;;;;;;;4.93;100.00;99876.95;1752811;81;21190;-74
2021/05/04 02:45:13;;;;;;;12.47;6.90;;;;;;;4.91;100.00;99874.91;1756200;81;21255;-74
2021/05/04 02:47:42;;;;;;;12.33;6.00;;;;;;;4.89;100.00;99877.39;1751615;81;21151;-74
2021/05/04 02:50:10;;;;;;;11.83;6.00;;;;;;;4.87;100.00;99880.20;1754625;81;21314;-75
2021/05/04 02:52:38;;;;;;;12.67;6.20;;;;;;;4.85;100.00;99878.16;1752623;81;21214;-74
2021/05/04 02:55:06;;;;;;;12.77;6.80;;;;;;;4.83;100.00;99885.97;1751429;81;21169;-74
2021/05/04 02:57:34;;;;;;;12.03;6.30;;;;;;;4.81;100.00;99883.92;1738324;81;21321;-75
2021/05/04 03:00:03;;;;;;;13.53;6.37;;;;;;;4.80;100.00;99886.23;1749582;81;21164;-73
2021/05/04 03:02:31;;;;;;;14.40;6.33;;;;;;;4.80;100.00;99883.09;1738333;81;21627;-74
2021/05/04 03:04:59;;;;;;;14.20;7.00;;;;;;;4.83;100.00;99886.80;1749698;81;21155;-75
2021/05/04 03:07:28;;;;;;;16.40;7.60;;;;;;;4.84;100.00;99888.52;1738225;81;21619;-73
2021/05/04 03:09:56;;;;;;;15.83;7.30;;;;;;;4.88;100.00;99893.94;1759594;81;21165;-74
2021/05/04 03:12:24;;;;;;;18.23;8.07;;;;;;;4.93;100.00;99904.25;1741016;81;21717;-75
2021/05/04 03:14:52;;;;;;;16.03;8.73;;;;;;;4.97;100.00;99906.16;1744722;81;21171;-75
2021/05/04 03:17:20;;;;;;;21.40;9.63;;;;;;;5.00;100.00;99909.91;1750167;81;21184;-75
2021/05/04 03:19:49;;;;;;;18.40;8.33;;;;;;;5.03;100.00;99908.27;1716905;83;21413;-74
2021/05/04 03:22:17;;;;;;;19.73;8.40;;;;;;;5.09;100.00;99917.11;1759552;81;21627;-74
2021/05/04 03:24:45;;;;;;;18.73;9.10;;;;;;;5.14;100.00;99917.05;1716278;82;21159;-73
2021/05/04 03:27:12;;;;;;;20.53;10.33;;;;;;;5.19;100.00;99916.64;1708351;82;21316;-74
2021/05/04 03:29:41;;;;;;;25.33;11.50;;;;;;;5.24;100.00;99912.19;1725966;81;21323;-76
2021/05/04 03:32:09;;;;;;;21.53;11.37;;;;;;;5.32;100.00;99912.34;1732180;83;21155;-74
2021/05/04 03:34:38;;;;;;;25.37;11.87;;;;;;;5.38;100.00;99905.06;1742071;81;21620;-75
2021/05/04 03:37:05;;;;;;;22.80;12.13;;;;;;;5.46;100.00;99909.73;1707775;81;21333;-74
2021/05/04 03:39:33;;;;;;;23.80;10.93;;;;;;;5.53;100.00;99913.55;1721159;82;21206;-75
2021/05/04 03:42:02;;;;;;;18.33;9.63;;;;;;;5.61;100.00;99908.33;1734910;83;21185;-74
2021/05/04 03:44:30;;;;;;;23.07;10.13;;;;;;;5.72;100.00;99919.41;1734873;82;21601;-75
2021/05/04 03:46:59;;;;;;;21.60;10.87;;;;;;;5.79;100.00;99917.84;1696235;83;21161;-74
2021/05/04 03:49:28;;;;;;;22.87;12.13;;;;;;;5.88;100.00;99922.84;1728130;83;21196;-74
2021/05/04 03:51:56;;;;;;;23.70;12.00;;;;;;;5.94;100.00;99920.08;1730566;81;21142;-74
2021/05/04 03:54:24;;;;;;;26.97;13.33;;;;;;;6.05;100.00;99927.48;1723549;81;21779;-75
2021/05/04 03:56:52;;;;;;;24.93;12.27;;;;;;;6.13;100.00;99929.45;1711168;82;21190;-75
2021/05/04 03:59:20;;;;;;;21.83;11.60;;;;;;;6.23;100.00;99931.63;1725007;82;21316;-75
2021/05/04 04:01:48;;;;;;;23.87;11.23;;;;;;;6.35;100.00;99923.38;1729365;83;21172;-74
2021/05/04 04:04:15;;;;;;;23.03;11.50;;;;;;;6.44;100.00;99921.98;1751206;81;21173;-77
2021/05/04 04:06:43;;;;;;;21.60;11.57;;;;;;;6.53;100.00;99920.77;1732702;83;21326;-76
2021/05/04 04:09:11;;;;;;;26.73;12.23;;;;;;;6.64;100.00;99924.63;1744604;81;21157;-76
2021/05/04 04:11:39;;;;;;;21.73;11.03;;;;;;;6.73;100.00;99920.17;1728404;83;21168;-76
2021/05/04 04:14:07;;;;;;;23.87;12.47;;;;;;;6.81;100.00;99922.45;1765139;81;21177;-76
2021/05/04 04:16:36;;;;;;;26.10;12.70;;;;;;;6.91;100.00;99924.27;1721460;81;21638;-75
2021/05/04 04:19:04;;;;;;;22.53;11.40;;;;;;;7.00;100.00;99922.86;1747578;82;21734;-76
2021/05/04 04:21:32;;;;;;;24.00;11.67;;;;;;;7.09;100.00;99915.73;1716751;82;21322;-75
2021/05/04 04:24:02;;;;;;;24.07;11.13;;;;;;;7.19;100.00;99915.67;1770888;80;21162;-75
2021/05/04 04:26:30;;;;;;;21.47;11.53;;;;;;;7.30;100.00;99922.67;1734779;81;21189;-76
2021/05/04 04:29:00;;;;;;;20.27;9.27;;;;;;;7.39;100.00;99924.44;1780157;80;21141;-74
2021/05/04 04:31:28;;;;;;;17.60;8.77;;;;;;;7.47;100.00;99919.14;1736375;81;21176;-75
2021/05/04 04:33:56;;;;;;;13.60;6.70;;;;;;;7.57;100.00;99926.61;1759940;80;21696;-76
2021/05/04 04:36:25;;;;;;;15.23;6.33;;;;;;;7.68;100.00;99914.77;1760190;81;21355;-76
2021/05/04 04:38:53;;;;;;;9.63;4.93;;;;;;;7.80;100.00;99928.32;1760142;80;21555;-77
2021/05/04 04:41:23;;;;;;;8.63;3.73;;;;;;;7.94;100.00;99926.92;1722282;81;21160;-77
2021/05/04 04:43:52;;;;;;;4.23;2.90;;;;;;;8.11;100.00;99932.41;1758228;80;21294;-77
2021/05/04 04:46:20;;;;;;;5.30;2.87;;;;;;;8.21;100.00;99926.43;1770564;80;21655;-76
2021/05/04 04:48:48;;;;;;;4.97;2.50;;;;;;;8.31;100.00;99929.87;1740456;81;21390;-77
2021/05/04 04:51:16;;;;;;;5.57;2.70;;;;;;;8.43;100.00;99923.75;1717613;82;21165;-75
2021/05/04 04:53:44;;;;;;;5.87;2.93;;;;;;;8.52;100.00;99926.82;1752190;81;21159;-76
2021/05/04 04:56:12;;;;;;;4.53;2.60;;;;;;;8.62;100.00;99922.64;1755855;80;21302;-76
2021/05/04 04:58:40;;;;;;;4.60;3.10;;;;;;;8.77;100.00;99930.98;1750270;81;21579;-75
2021/05/04 05:01:08;;;;;;;4.50;2.60;;;;;;;8.93;100.00;99939.13;1730832;81;21305;-76
2021/05/04 05:03:36;;;;;;;3.87;2.67;;;;;;;9.10;100.00;99933.78;1757891;80;21325;-76
2021/05/04 05:06:04;;;;;;;4.93;2.80;;;;;;;9.26;100.00;99932.50;1759712;80;21165;-76
2021/05/04 05:08:32;;;;;;;7.57;3.37;;;;;;;9.37;100.00;99935.38;1733408;81;21251;-74
2021/05/04 05:11:01;;;;;;;7.93;4.73;;;;;;;9.34;100.00;99938.41;1715045;82;21574;-75
2021/05/04 05:13:30;;;;;;;21.37;11.63;;;;;;;9.39;100.00;99940.10;1772270;80;21266;-73
2021/05/04 05:15:58;;;;;;;7.50;4.70;;;;;;;9.45;100.00;99944.82;1744200;81;21740;-73
2021/05/04 05:18:26;;;;;;;50.20;33.63;;;;;;;9.48;100.00;99949.06;1730618;81;21181;-73
2021/05/04 05:20:54;;;;;;;99.33;68.30;;;;;;;9.57;100.00;99948.05;1710921;83;21591;-74
2021/05/04 05:23:22;;;;;;;32.90;22.73;;;;;;;9.72;100.00;99948.73;1715548;82;21177;-72
2021/05/04 05:25:50;;;;;;;56.53;38.80;;;;;;;9.88;100.00;99948.77;1751918;81;21549;-71
2021/05/04 05:28:17;;;;;;;27.87;17.73;;;;;;;10.07;100.00;99955.66;1731373;83;21192;-73
2021/05/04 05:30:45;;;;;;;8.97;5.30;;;;;;;10.21;100.00;99955.48;1757292;81;21175;-74
2021/05/04 05:33:13;;;;;;;9.20;4.23;;;;;;;10.30;100.00;99961.72;1746891;81;21326;-75
2021/05/04 05:35:41;;;;;;;6.20;4.70;;;;;;;10.28;100.00;99963.23;1751984;81;21167;-77
2021/05/04 05:38:11;;;;;;;10.47;4.70;;;;;;;10.20;100.00;99966.81;1722089;82;21764;-77
2021/05/04 05:40:39;;;;;;;10.07;4.17;;;;;;;10.12;100.00;99965.45;1720916;81;21207;-75
2021/05/04 05:43:07;;;;;;;9.53;4.10;;;;;;;10.08;100.00;99973.57;1733280;81;21894;-75
2021/05/04 05:45:35;;;;;;;5.80;3.27;;;;;;;10.12;100.00;99974.08;1730853;81;21246;-77
2021/05/04 05:48:05;;;;;;;8.60;4.07;;;;;;;10.17;100.00;99976.59;1697775;81;21748;-77
2021/05/04 05:50:33;;;;;;;9.90;4.57;;;;;;;10.33;100.00;99970.87;1711777;81;21215;-76
2021/05/04 05:53:01;;;;;;;7.83;3.40;;;;;;;10.45;100.00;99974.91;1736457;81;21659;-76
2021/05/04 05:55:31;;;;;;;5.37;3.40;;;;;;;10.43;100.00;99980.49;1733388;82;21194;-76
2021/05/04 05:57:59;;;;;;;7.30;3.50;;;;;;;10.50;100.00;99976.59;1734621;82;21173;-77
2021/05/04 06:00:27;;;;;;;8.90;3.62;;;;;;;10.54;100.00;99976.58;1757691;81;21185;-77
2021/05/04 06:02:54;;;;;;;6.53;3.72;;;;;;;10.59;100.00;99978.27;1741739;81;21184;-75
2021/05/04 06:05:22;;;;;;;8.08;3.62;;;;;;;10.73;100.00;99970.44;1745073;82;21363;-74
2021/05/04 06:07:53;;;;;;;8.05;4.60;;;;;;;10.94;100.00;99968.50;1765688;81;21208;-75
2021/05/04 06:10:21;;;;;;;7.25;3.85;;;;;;;11.05;100.00;99957.80;1742095;81;21147;-75
2021/05/04 06:13:01;;;;;;;7.15;3.92;;;;;;;11.27;100.00;99961.59;1732949;82;21283;-75
2021/05/04 06:15:30;;;;;;;8.60;4.53;;;;;;;11.34;100.00;99963.92;1756158;80;21211;-74
2021/05/04 06:17:58;;;;;;;7.15;4.15;;;;;;;11.40;100.00;99954.59;1733061;82;21225;-73
2021/05/04 06:20:26;;;;;;;8.28;3.87;;;;;;;11.37;100.00;99949.52;1685845;83;21202;-72
2021/05/04 06:22:54;;;;;;;16.02;9.63;;;;;;;11.26;100.00;99954.00;1709462;82;21717;-73
2021/05/04 06:25:21;;;;;;;6.95;3.50;;;;;;;11.34;100.00;99961.22;1732708;81;21188;-73
2021/05/04 06:27:50;;;;;;;8.60;3.90;;;;;;;11.50;100.00;99958.92;1733954;81;21119;-74
2021/05/04 06:30:18;;;;;;;9.23;4.85;;;;;;;11.61;98.14;99955.79;1730681;81;21601;-73
2021/05/04 06:32:48;;;;;;;9.43;4.50;;;;;;;11.61;95.51;99954.44;1726992;82;21166;-73
2021/05/04 06:35:20;;;;;;;10.03;3.12;;;;;;;11.64;98.71;99959.50;1731252;81;21166;-73
2021/05/04 06:37:48;;;;;;;5.87;3.65;;;;;;;11.88;94.77;99963.05;1726569;82;21221;-73
2021/05/04 06:40:18;;;;;;;12.37;5.15;;;;;;;12.16;92.96;99964.70;1732710;81;21734;-74
2021/05/04 06:42:47;;;;;;;8.60;4.65;;;;;;;12.39;85.59;99959.23;1708600;82;21342;-73
2021/05/04 06:45:14;;;;;;;5.75;3.90;;;;;;;12.39;86.37;99963.30;1727909;81;21194;-73
2021/05/04 06:47:42;;;;;;;5.72;3.60;;;;;;;12.44;87.06;99958.16;1725848;81;21213;-73
2021/05/04 06:50:11;;;;;;;10.72;4.62;;;;;;;12.63;90.65;99966.80;1715865;82;21168;-75
2021/05/04 06:52:39;;;;;;;7.47;3.77;;;;;;;12.76;87.60;99956.13;1775400;80;21744;-74
2021/05/04 06:55:09;;;;;;;7.00;3.72;;;;;;;12.90;90.64;99957.15;1749684;81;21372;-73
2021/05/04 06:57:36;;;;;;;10.18;5.70;;;;;;;12.96;85.57;99952.83;1735957;81;21205;-71
2021/05/04 07:00:07;;;;;;;23.07;15.08;;;;;;;13.03;88.11;99956.47;1737752;81;21138;-72
2021/05/04 07:02:35;;;;;;;10.53;5.40;;;;;;;13.14;83.01;99956.02;1741070;81;21181;-74
2021/05/04 07:05:05;;;;;;;8.08;4.35;;;;;;;13.03;85.95;99961.41;1717384;81;21186;-71
2021/05/04 07:07:32;;;;;;;10.95;6.33;;;;;;;12.99;80.00;99960.61;1755745;80;21148;-72
2021/05/04 07:10:03;;;;;;;9.83;5.08;;;;;;;13.07;79.70;99964.06;1716286;82;21230;-72
2021/05/04 07:12:31;;;;;;;7.08;3.85;;;;;;;13.23;77.00;99969.80;1711697;82;21172;-74
2021/05/04 07:14:58;;;;;;;20.40;15.38;;;;;;;13.26;81.33;99971.27;1730732;82;21220;-73
2021/05/04 07:17:27;;;;;;;27.85;18.90;;;;;;;13.25;78.54;99965.01;1733931;81;21298;-74
2021/05/04 07:19:56;;;;;;;7.75;4.58;;;;;;;13.30;75.47;99969.36;1736146;81;21193;-72
2021/05/04 07:22:26;;;;;;;4.95;3.80;;;;;;;13.22;74.60;99980.31;1727344;82;21168;-73
2021/05/04 07:24:54;;;;;;;5.70;3.65;;;;;;;13.15;75.59;99971.25;1735786;81;21163;-73
2021/05/04 07:27:22;;;;;;;4.95;3.52;;;;;;;13.25;77.01;99975.88;1757952;80;22047;-73
2021/05/04 07:29:50;;;;;;;3.80;3.05;;;;;;;13.38;80.42;99966.23;1743949;80;21167;-74
2021/05/04 07:32:18;;;;;;;10.20;3.85;;;;;;;13.67;71.38;99972.94;1748572;81;21136;-73
2021/05/04 07:34:49;;;;;;;7.70;3.83;;;;;;;13.78;74.79;99979.73;1716925;83;21622;-74
2021/05/04 07:37:17;;;;;;;11.18;5.08;;;;;;;14.05;74.05;99980.82;1722681;83;21189;-73
2021/05/04 07:39:45;;;;;;;12.53;6.50;;;;;;;14.33;70.85;99981.91;1708149;83;21604;-74
2021/05/04 07:42:13;;;;;;;8.95;4.60;;;;;;;14.46;69.37;99979.80;1730548;81;21180;-73
2021/05/04 07:44:42;;;;;;;11.68;5.45;;;;;;;14.72;71.86;99981.38;1730109;81;21229;-73
2021/05/04 07:47:11;;;;;;;16.37;6.30;;;;;;;14.98;61.59;99982.06;1740588;81;21607;-74
2021/05/04 07:49:45;;;;;;;8.83;4.42;;;;;;;14.88;66.46;99973.94;1743267;81;21156;-74
2021/05/04 07:52:13;;;;;;;11.15;4.80;;;;;;;14.98;68.77;99971.17;1762439;81;21195;-74
2021/05/04 07:54:42;;;;;;;15.78;5.50;;;;;;;15.34;68.29;99986.94;1758867;80;21189;-73
2021/05/04 07:57:12;;;;;;;15.15;6.35;;;;;;;15.41;63.31;99982.34;1763349;81;21181;-73
2021/05/04 07:59:40;;;;;;;10.90;5.95;;;;;;;15.19;68.75;99987.06;1763478;80;21204;-74
2021/05/04 08:02:08;;;;;;;9.10;5.05;;;;;;;15.29;70.58;99984.81;1764014;80;21316;-72
2021/05/04 08:04:36;;;;;;;14.50;7.45;;;;;;;15.60;69.41;99977.16;1723240;81;21189;-74
2021/05/04 08:07:08;;;;;;;14.38;5.90;;;;;;;15.87;67.98;99968.56;1713396;83;21345;-73
2021/05/04 08:09:35;;;;;;;14.58;5.00;;;;;;;15.91;67.35;99969.28;1727533;81;21171;-73
2021/05/04 08:12:04;;;;;;;19.60;7.75;;;;;;;16.18;68.05;99976.13;1737781;81;21183;-76
2021/05/04 08:14:35;;;;;;;17.70;6.70;;;;;;;16.18;68.05;99976.13;1762399;80;21177;-74
2021/05/04 08:17:11;;;;;;;18.15;6.15;;;;;;;16.44;65.92;99967.62;1754148;80;21152;-75
2021/05/04 08:19:35;;;;;;;13.43;5.95;;;;;;;16.37;55.46;99975.81;1710630;83;21240;-77
2021/05/04 08:22:03;;;;;;;32.35;15.35;;;;;;;16.13;58.66;99966.39;1712817;82;21232;-74
2021/05/04 08:24:31;;;;;;;13.05;6.28;;;;;;;15.99;61.03;99974.22;1725638;82;21354;-74
2021/05/04 08:26:59;;;;;;;11.38;4.97;;;;;;;15.89;60.23;99967.30;1760504;80;21158;-75
2021/05/04 08:29:29;;;;;;;12.82;5.55;;;;;;;15.98;63.73;99955.66;1710635;82;21581;-73
2021/05/04 08:31:57;;;;;;;10.75;5.30;;;;;;;16.17;64.61;99949.08;1724089;82;21241;-76
2021/05/04 08:34:26;;;;;;;10.48;4.53;;;;;;;16.44;57.29;99943.89;1725793;82;21189;-74
2021/05/04 08:36:53;;;;;;;25.85;14.05;;;;;;;16.50;61.97;99942.20;1742481;82;21666;-74
2021/05/04 08:39:21;;;;;;;20.48;10.08;;;;;;;16.68;61.26;99945.66;1731620;82;21396;-74
2021/05/04 08:41:49;;;;;;;13.45;7.50;;;;;;;17.05;59.99;99944.11;1718883;81;21152;-75
2021/05/04 08:44:20;;;;;;;35.63;26.20;;;;;;;17.39;58.09;99942.06;1719181;82;21222;-74
2021/05/04 08:46:49;;;;;;;30.05;6.40;;;;;;;17.50;49.32;99934.23;1741203;82;21159;-72
2021/05/04 08:49:19;;;;;;;15.75;6.62;;;;;;;17.37;44.15;99943.31;1754909;81;21173;-74
2021/05/04 08:51:50;;;;;;;23.92;5.25;;;;;;;17.37;47.62;99936.48;1761226;81;21205;-74
2021/05/04 08:54:18;;;;;;;21.57;11.78;;;;;;;17.48;42.75;99940.45;1700056;84;21207;-73
2021/05/04 08:56:46;;;;;;;17.02;9.25;;;;;;;17.55;46.42;99927.58;1741425;81;21223;-75
2021/05/04 08:59:14;;;;;;;15.23;4.47;;;;;;;17.78;46.24;99945.61;1701574;83;21176;-76
2021/05/04 09:01:43;;;;;;;9.20;4.70;;;;;;;17.96;48.78;99934.48;1711410;83;21232;-75
2021/05/04 09:21:15;;;;;;;12.00;7.10;;;;;;;17.76;51.92;99931.83;1822923;78;21147;-74
2021/05/04 09:23:43;;;;;;;14.63;5.83;;;;;;;17.94;49.62;99928.40;1696919;83;21227;-75
2021/05/04 09:26:35;;;;;;;13.45;6.53;;;;;;;17.90;51.49;99935.34;1715845;82;21176;-74
2021/05/04 09:29:09;;;;;;;16.20;6.50;;;;;;;17.79;49.55;99925.39;1715985;81;21161;-75
2021/05/04 09:31:40;;;;;;;13.70;5.28;;;;;;;17.85;52.53;99937.37;1723316;82;21208;-74
2021/05/04 09:34:13;;;;;;;16.35;7.92;;;;;;;18.13;48.52;99930.64;1723021;83;21165;-78
2021/05/04 09:36:51;;;;;;;9.78;5.08;;;;;;;17.83;46.08;99933.48;1723038;83;21250;-76
2021/05/04 09:39:30;;;;;;;13.13;6.28;;;;;;;17.34;49.79;99935.58;1713918;83;21188;-76
2021/05/04 09:42:00;;;;;;;11.15;5.50;;;;;;;17.05;52.21;99937.78;1719349;81;21682;-74
2021/05/04 09:44:46;;;;;;;12.25;6.47;;;;;;;16.94;56.78;99926.17;1709935;83;21168;-73
2021/05/04 09:47:25;;;;;;;11.78;6.67;;;;;;;17.09;53.12;99932.22;1845508;77;22475;-75
2021/05/04 09:49:55;;;;;;;17.52;8.25;;;;;;;17.07;51.24;99935.70;1806144;79;21298;-73
2021/05/04 09:55:10;;;;;;;;;;;;;;;17.59;54.28;99928.27;1810514;79;21098;-78
2021/05/04 09:57:51;;;;;;;;;;;;;;;17.62;53.07;99937.95;1810492;79;20152;-76
2021/05/04 10:00:22;;;;;;;;;;;;;;;17.31;49.76;99931.38;1810528;79;20157;-73
2021/05/04 10:02:50;;;;;;;;;;;;;;;16.83;54.28;99945.41;1810956;79;20181;-75
2021/05/04 10:05:18;;;;;;;;;;;;;;;16.64;54.44;99935.70;1796396;79;20191;-74
2021/05/04 10:07:46;;;;;;;;;;;;;;;16.55;54.24;99941.58;1797330;79;20677;-77
2021/05/04 10:10:15;;;;;;;;;;;;;;;16.44;58.20;99941.70;1803953;80;20149;-76
2021/05/04 10:12:45;;;;;;;;;;;;;;;16.30;53.93;99948.52;1802708;80;20292;-77
2021/05/04 10:15:14;;;;;;;;;;;;;;;15.97;53.39;99953.14;1802645;80;20177;-77
2021/05/04 10:17:41;;;;;;;;;;;;;;;15.69;57.83;99944.06;1814839;79;20180;-78
2021/05/04 10:20:13;;;;;;;;;;;;;;;15.90;58.05;99943.58;1821254;79;20204;-78
2021/05/04 10:22:40;;;;;;;;;;;;;;;16.04;57.31;99932.16;1821603;79;20286;-77
2021/05/04 10:25:09;;;;;;;;;;;;;;;15.99;61.34;99935.54;1752060;82;20205;-76
2021/05/04 10:27:38;;;;;;;;;;;;;;;16.22;57.88;99929.66;1783273;80;20132;-77
2021/05/04 10:30:07;;;;;;;;;;;;;;;16.39;56.12;99934.67;1776666;80;20401;-77
2021/05/04 10:32:55;;;;;;;;;;;;;;;16.39;58.33;99937.41;1776080;81;20414;-76
2021/05/04 10:35:32;;;;;;;;;;;;;;;16.49;59.59;99941.91;1719699;80;20302;-78
2021/05/04 10:38:07;;;;;;;;;;;;;;;16.83;55.86;99939.44;1786436;80;20413;-75
2021/05/04 10:40:37;;;;;;;;;;;;;;;17.15;55.70;99929.97;1772390;80;20494;-78
2021/05/04 10:43:25;;;;;;;;;;;;;;;17.65;49.30;99932.87;1747374;82;20343;-74
2021/05/04 10:45:59;;;;;;;;;;;;;;;17.60;46.50;99935.94;1858019;77;20216;-77
2021/05/04 10:48:40;;;;;;;;;;;;;;;17.58;47.43;99942.16;1830234;78;20175;-77
2021/05/04 10:51:16;;;;;;;;;;;;;;;17.27;46.05;99933.70;1830460;78;20154;-75
2021/05/04 10:53:54;;;;;;;;;;;;;;;16.79;52.71;99935.97;1829778;78;20247;-75
2021/05/04 10:56:33;;;;;;;;;;;;;;;16.47;53.72;99931.73;1829633;78;20251;-76
2021/05/04 10:59:02;;;;;;;;;;;;;;;16.19;53.74;99928.71;1762466;81;20173;-75
2021/05/04 11:01:29;;;;;;;;;;;;;;;15.99;56.81;99931.45;1762680;81;20149;-75
2021/05/04 11:04:00;;;;;;;;;;;;;;;15.92;59.33;99931.44;1762667;81;20212;-78
2021/05/04 11:06:31;;;;;;;;;;;;;;;16.15;55.22;99932.92;1755078;81;20183;-79
2021/05/04 11:09:11;;;;;;;;;;;;;;;16.11;53.70;99929.77;1749765;82;20154;-75
2021/05/04 11:11:41;;;;;;;;;;;;;;;15.94;56.07;99914.88;1749825;82;20162;-75
2021/05/04 11:14:19;;;;;;;;;;;;;;;15.94;61.11;99927.97;1749579;82;20151;-76
2021/05/04 11:16:58;;;;;;;;;;;;;;;15.87;55.94;99921.68;1752710;81;20254;-75
2021/05/04 11:19:32;;;;;;;;;;;;;;;15.64;57.15;99926.66;1754163;81;20423;-74
2021/05/04 11:22:05;;;;;;;;;;;;;;;15.30;58.99;99916.20;1754099;82;20171;-76
2021/05/04 11:24:37;;;;;;;;;;;;;;;15.02;60.79;99923.95;1753783;82;20157;-76
2021/05/04 11:27:12;;;;;;;;;;;;;;;14.66;67.92;99920.96;1753881;82;20166;-75
2021/05/04 11:29:41;;;;;;;;;;;;;;;14.54;71.39;99917.09;1758469;81;20191;-75
2021/05/04 11:32:27;;;;;;;;;;;;;;;14.52;69.76;99921.36;1760854;81;20230;-77
2021/05/04 11:35:00;;;;;;;;;;;;;;;14.41;68.29;99922.77;1756679;81;20159;-75
2021/05/04 11:37:33;;;;;;;;;;;;;;;14.36;71.88;99924.37;1760717;81;20428;-75
2021/05/04 11:40:08;;;;;;;;;;;;;;;14.39;70.28;99917.19;1762731;81;20139;-77
2021/05/04 11:42:56;;;;;;;;;;;;;;;14.38;70.51;99920.44;1730529;83;20145;-76
2021/05/04 11:45:29;;;;;;;;;;;;;;;14.37;70.81;99918.73;1728773;81;20146;-76
2021/05/04 11:48:01;;;;;;;;;;;;;;;14.42;70.99;99916.27;1727781;83;20236;-75
2021/05/04 11:50:30;;;;;;;;;;;;;;;14.47;69.74;99914.31;1727792;83;20205;-77
2021/05/04 11:52:59;;;;;;;;;;;;;;;14.43;68.48;99908.44;1737989;82;20144;-76
2021/05/04 11:55:28;;;;;;;;;;;;;;;14.39;70.51;99902.22;1813658;79;20429;-78
2021/05/04 11:58:00;;;;;;;;;;;;;;;14.44;68.48;99906.55;1826322;78;20132;-76
2021/05/04 12:00:30;;;;;;;;;;;;;;;14.78;70.01;99896.72;1826479;79;20144;-77
2021/05/04 12:03:06;;;;;;;;;;;;;;;15.23;61.58;99884.86;1826638;79;20151;-77
2021/05/04 12:05:34;;;;;;;;;;;;;;;15.37;61.58;99885.20;1825331;78;20247;-76
2021/05/04 12:08:04;;;;;;;;;;;;;;;15.64;63.20;99892.59;1824598;79;20379;-76
2021/05/04 12:10:46;;;;;;;;;;;;;;;15.97;56.14;99876.78;1824842;79;20181;-78
2021/05/04 12:13:14;;;;;;;;;;;;;;;15.87;56.08;99886.23;1822384;79;20149;-76